createdAt,value
2024-03-10T00:01:36.320Z,8.60
2024-03-10T00:04:38.120Z,9.32
2024-03-10T00:07:39.887Z,9.20
2024-03-10T00:10:41.670Z,9.73
2024-03-10T00:13:45.123Z,8.88
2024-03-10T00:16:46.973Z,8.23
2024-03-10T00:19:48.768Z,8.55
2024-03-10T00:22:52.471Z,9.50
2024-03-10T00:25:54.829Z,8.40
2024-03-10T00:28:57.970Z,9.02
2024-03-10T00:31:59.819Z,8.50
2024-03-10T00:35:02.099Z,8.65
2024-03-10T00:38:04.219Z,8.07
2024-03-10T00:41:06.069Z,9.32
2024-03-10T00:44:09.238Z,9.73
2024-03-10T00:47:12.071Z,9.60
2024-03-10T00:50:13.964Z,10.50
2024-03-10T00:53:16.296Z,9.40
2024-03-10T00:56:18.250Z,10.63
2024-03-10T00:59:21.602Z,9.60
2024-03-10T01:02:24.098Z,8.77
2024-03-10T01:05:26.681Z,9.23
2024-03-10T01:08:28.538Z,8.88
2024-03-10T01:11:30.420Z,9.38
2024-03-10T01:14:33.745Z,9.00
2024-03-10T01:17:36.068Z,8.10
2024-03-10T01:20:37.937Z,8.38
2024-03-10T01:23:39.767Z,10.85
2024-03-10T01:26:42.523Z,9.00
2024-03-10T01:29:45.648Z,8.40
2024-03-10T01:32:47.577Z,9.68
2024-03-10T01:35:49.358Z,9.10
2024-03-10T01:38:51.189Z,8.57
2024-03-10T01:41:53.024Z,8.77
2024-03-10T01:44:56.125Z,9.15
2024-03-10T01:47:57.912Z,9.00
2024-03-10T01:50:59.877Z,8.82
2024-03-10T01:54:02.820Z,9.27
2024-03-10T01:57:06.459Z,8.40
2024-03-10T02:00:11.295Z,10.13
2024-03-10T02:03:13.460Z,10.40
2024-03-10T02:06:15.213Z,9.43
2024-03-10T02:09:17.313Z,9.82
2024-03-10T02:12:19.182Z,9.73
2024-03-10T02:15:22.636Z,9.75
2024-03-10T02:18:24.722Z,8.88
2024-03-10T02:21:26.589Z,9.43
2024-03-10T02:24:33.933Z,9.35
2024-03-10T02:27:37.066Z,10.02
2024-03-10T02:30:38.879Z,8.93
2024-03-10T02:33:40.653Z,8.63
2024-03-10T02:36:42.450Z,9.40
2024-03-10T02:39:44.198Z,8.63
2024-03-10T02:42:47.404Z,8.30
2024-03-10T02:45:49.192Z,9.10
2024-03-10T02:48:50.970Z,8.65
2024-03-10T02:51:52.742Z,8.57
2024-03-10T02:54:54.537Z,9.32
2024-03-10T02:57:57.660Z,9.80
2024-03-10T03:00:59.435Z,9.45
2024-03-10T03:04:01.211Z,9.77
2024-03-10T03:07:03.152Z,9.45
2024-03-10T03:10:05.574Z,9.82
2024-03-10T03:13:08.684Z,9.40
2024-03-10T03:16:10.582Z,9.70
2024-03-10T03:19:12.351Z,10.02
2024-03-10T03:22:14.129Z,9.90
2024-03-10T03:25:16.303Z,9.57
2024-03-10T03:28:19.416Z,8.88
2024-03-10T03:31:21.203Z,9.75
2024-03-10T03:34:23.023Z,10.43
2024-03-10T03:37:24.803Z,10.50
2024-03-10T03:40:26.589Z,10.00
2024-03-10T03:43:29.700Z,10.70
2024-03-10T03:46:31.632Z,9.70
2024-03-10T03:49:33.390Z,9.30
2024-03-10T03:52:35.151Z,9.65
2024-03-10T03:55:36.899Z,10.15
2024-03-10T03:58:40.034Z,10.60
2024-03-10T04:01:41.831Z,9.00
2024-03-10T04:04:43.819Z,9.88
2024-03-10T04:07:45.676Z,10.68
2024-03-10T04:10:48.419Z,10.13
2024-03-10T04:13:52.186Z,9.98
2024-03-10T04:19:55.804Z,9.55
2024-03-10T04:22:57.659Z,9.57
2024-03-10T04:25:59.454Z,10.18
2024-03-10T04:29:02.696Z,9.75
2024-03-10T04:32:04.965Z,9.73
2024-03-10T04:35:07.660Z,10.13
2024-03-10T04:38:09.845Z,9.57
2024-03-10T04:41:11.868Z,10.07
2024-03-10T04:44:15.117Z,9.50
2024-03-10T04:47:16.946Z,10.88
2024-03-10T04:50:18.709Z,9.57
2024-03-10T04:53:20.503Z,8.90
2024-03-10T04:56:22.291Z,9.32
2024-03-10T04:59:25.501Z,11.15
2024-03-10T05:02:27.617Z,11.30
2024-03-10T05:05:29.451Z,11.13
2024-03-10T05:08:31.251Z,14.30
2024-03-10T05:11:33.475Z,12.07
2024-03-10T05:14:36.859Z,10.38
2024-03-10T05:17:39.230Z,11.13
2024-03-10T05:20:41.257Z,9.88
2024-03-10T05:23:43.118Z,9.98
2024-03-10T05:26:44.902Z,9.45
2024-03-10T05:29:48.009Z,11.35
2024-03-10T05:32:49.798Z,10.38
2024-03-10T05:35:51.531Z,9.88
2024-03-10T05:38:53.349Z,10.23
2024-03-10T05:41:55.132Z,10.40
2024-03-10T05:44:58.226Z,10.73
2024-03-10T05:48:00.002Z,9.57
2024-03-10T05:51:01.952Z,9.73
2024-03-10T05:54:03.859Z,9.90
2024-03-10T05:57:05.967Z,9.60
2024-03-10T06:00:10.172Z,10.60
2024-03-10T06:03:11.978Z,9.50
2024-03-10T06:06:13.741Z,11.05
2024-03-10T06:09:15.499Z,10.98
2024-03-10T06:12:17.406Z,10.63
2024-03-10T06:15:20.532Z,10.43
2024-03-10T06:18:22.351Z,10.70
2024-03-10T06:21:25.551Z,11.05
2024-03-10T06:24:27.409Z,10.68
2024-03-10T06:27:29.193Z,10.23
2024-03-10T06:30:32.358Z,10.32
2024-03-10T06:33:34.639Z,10.27
2024-03-10T06:36:36.501Z,10.77
2024-03-10T06:39:38.512Z,11.02
2024-03-10T06:42:42.787Z,12.05
2024-03-10T06:45:47.324Z,11.45
2024-03-10T06:48:49.183Z,11.57
2024-03-10T06:51:50.923Z,11.63
2024-03-10T06:54:52.655Z,11.75
2024-03-10T06:57:54.451Z,11.30
2024-03-10T07:00:57.609Z,12.38
2024-03-10T07:03:59.394Z,11.75
2024-03-10T07:07:01.142Z,11.70
2024-03-10T07:10:02.916Z,12.73
2024-03-10T07:13:05.196Z,12.88
2024-03-10T07:16:08.444Z,11.98
2024-03-10T07:19:10.222Z,13.48
2024-03-10T07:22:12.036Z,11.52
2024-03-10T07:25:14.184Z,11.85
2024-03-10T07:28:16.028Z,12.60
2024-03-10T07:31:19.165Z,12.05
2024-03-10T07:34:20.897Z,11.57
2024-03-10T07:37:22.667Z,12.82
2024-03-10T07:40:24.656Z,13.40
2024-03-10T07:43:26.424Z,12.02
2024-03-10T07:46:29.601Z,12.52
2024-03-10T07:49:31.423Z,12.88
2024-03-10T07:52:33.200Z,12.40
2024-03-10T07:55:34.990Z,13.35
2024-03-10T07:58:36.817Z,13.25
2024-03-10T08:01:40.078Z,12.45
2024-03-10T08:04:41.953Z,12.68
2024-03-10T08:07:47.124Z,12.10
2024-03-10T08:10:50.874Z,11.70
2024-03-10T08:13:52.780Z,12.07
2024-03-10T08:16:56.048Z,11.18
2024-03-10T08:19:57.891Z,12.07
2024-03-10T08:22:59.736Z,11.77
2024-03-10T08:26:01.898Z,13.18
2024-03-10T08:29:03.945Z,11.73
2024-03-10T08:32:07.575Z,12.00
2024-03-10T08:38:18.378Z,11.55
2024-03-10T08:41:20.349Z,10.55
2024-03-10T08:44:22.157Z,11.32
2024-03-10T08:47:25.281Z,11.57
2024-03-10T08:50:27.324Z,10.90
2024-03-10T08:53:29.137Z,12.45
2024-03-10T08:56:30.973Z,10.85
2024-03-10T08:59:33.194Z,10.88
2024-03-10T09:02:36.433Z,11.05
2024-03-10T09:05:38.443Z,10.95
2024-03-10T09:08:40.283Z,10.65
2024-03-10T09:11:42.185Z,11.27
2024-03-10T09:14:44.131Z,10.70
2024-03-10T09:17:47.685Z,11.25
2024-03-10T09:20:49.815Z,11.43
2024-03-10T09:23:51.574Z,12.25
2024-03-10T09:26:53.433Z,10.50
2024-03-10T09:29:55.200Z,11.75
2024-03-10T09:32:58.336Z,10.70
2024-03-10T09:36:00.098Z,11.15
2024-03-10T09:39:01.893Z,10.98
2024-03-10T09:42:04.214Z,11.18
2024-03-10T09:45:14.674Z,10.30
2024-03-10T09:48:18.293Z,9.98
2024-03-10T09:54:21.702Z,10.95
2024-03-10T09:57:23.647Z,9.88
2024-03-10T10:00:26.948Z,9.48
2024-03-10T10:03:30.681Z,11.13
2024-03-10T10:06:32.852Z,10.50
2024-03-10T10:09:34.688Z,11.23
2024-03-10T10:12:36.436Z,11.65
2024-03-10T10:15:38.224Z,10.98
2024-03-10T10:18:51.195Z,10.52
2024-03-10T10:21:56.705Z,11.18
2024-03-10T10:25:01.988Z,9.75
2024-03-10T10:28:04.296Z,9.68
2024-03-10T10:31:09.964Z,10.65
2024-03-10T10:34:13.102Z,10.70
2024-03-10T10:37:14.861Z,9.70
2024-03-10T10:40:16.633Z,9.43
2024-03-10T10:43:18.719Z,10.27
2024-03-10T10:46:21.153Z,9.60
2024-03-10T10:49:24.618Z,10.27
2024-03-10T10:55:28.583Z,9.93
2024-03-10T10:58:32.195Z,9.52
2024-03-10T11:01:33.950Z,10.98
2024-03-10T11:04:38.853Z,9.82
2024-03-10T11:07:43.540Z,9.20
2024-03-10T11:10:46.758Z,9.02
2024-03-10T11:13:48.648Z,9.45
2024-03-10T11:16:50.528Z,9.20
2024-03-10T11:19:54.838Z,10.32
2024-03-10T11:22:56.744Z,9.02
2024-03-10T11:26:02.853Z,8.18
2024-03-10T11:29:04.666Z,8.82
2024-03-10T11:32:27.402Z,9.23
2024-03-10T11:35:32.378Z,9.18
2024-03-10T11:38:34.705Z,9.48
2024-03-10T11:41:36.589Z,8.93
2024-03-10T11:44:38.480Z,8.40
2024-03-10T11:47:40.317Z,8.20
2024-03-10T11:50:43.475Z,8.70
2024-03-10T11:53:45.278Z,8.38
2024-03-10T11:56:51.586Z,8.43
2024-03-10T11:59:54.943Z,8.20
2024-03-10T12:02:57.240Z,8.27
2024-03-10T12:06:00.413Z,7.95
2024-03-10T12:09:02.392Z,7.63
2024-03-10T12:12:10.818Z,6.60
2024-03-10T12:15:16.454Z,7.50
2024-03-10T12:18:18.299Z,7.70
2024-03-10T12:21:21.462Z,8.73
2024-03-10T12:24:23.237Z,6.30
2024-03-10T12:27:24.960Z,8.48
2024-03-10T12:30:27.579Z,7.05
2024-03-10T12:33:29.425Z,7.00
2024-03-10T12:36:32.568Z,7.03
2024-03-10T12:39:34.446Z,8.30
2024-03-10T12:42:39.381Z,8.85
2024-03-10T12:45:41.566Z,10.20
2024-03-10T12:48:43.434Z,8.23
2024-03-10T12:51:46.613Z,7.50
2024-03-10T12:54:48.446Z,6.68
2024-03-10T12:57:50.205Z,7.05
2024-03-10T13:00:51.999Z,7.68
2024-03-10T13:03:53.781Z,6.38
2024-03-10T13:06:56.937Z,6.68
2024-03-10T13:09:58.696Z,6.82
2024-03-10T13:13:00.507Z,7.40
2024-03-10T13:16:02.369Z,7.38
2024-03-10T13:19:04.113Z,6.38
2024-03-10T13:22:07.217Z,6.40
2024-03-10T13:25:08.973Z,6.50
2024-03-10T13:28:10.773Z,6.13
2024-03-10T13:31:12.633Z,6.32
2024-03-10T13:34:14.368Z,6.63
2024-03-10T13:37:17.627Z,6.70
2024-03-10T13:40:19.690Z,7.18
2024-03-10T13:43:21.461Z,6.72
2024-03-10T13:46:23.198Z,7.15
2024-03-10T13:49:24.961Z,6.38
2024-03-10T13:52:28.088Z,6.90
2024-03-10T13:55:29.829Z,5.53
2024-03-10T13:58:31.592Z,6.28
2024-03-10T14:01:33.403Z,5.80
2024-03-10T14:04:35.474Z,6.05
2024-03-10T14:07:38.673Z,6.07
2024-03-10T14:10:40.440Z,6.53
2024-03-10T14:13:42.205Z,6.35
2024-03-10T14:16:45.078Z,6.97
2024-03-10T14:19:46.870Z,5.55
2024-03-10T14:22:49.981Z,6.47
2024-03-10T14:25:51.786Z,6.85
2024-03-10T14:28:53.661Z,6.45
2024-03-10T14:31:55.500Z,7.07
2024-03-10T14:34:57.309Z,7.72
2024-03-10T14:38:00.474Z,8.80
2024-03-10T14:41:02.456Z,9.45
2024-03-10T14:44:06.447Z,6.95
2024-03-10T14:47:09.369Z,7.15
2024-03-10T14:50:14.677Z,7.43
2024-03-10T14:53:17.838Z,8.02
2024-03-10T14:56:19.735Z,7.15
2024-03-10T14:59:21.493Z,6.57
2024-03-10T15:02:23.301Z,7.25
2024-03-10T15:05:25.325Z,6.25
2024-03-10T15:08:28.514Z,7.85
2024-03-10T15:11:30.413Z,6.50
2024-03-10T15:14:32.294Z,7.18
2024-03-10T15:17:34.375Z,7.70
2024-03-10T15:20:37.106Z,6.75
2024-03-10T15:23:40.352Z,6.68
2024-03-10T15:26:42.233Z,6.53
2024-03-10T15:29:44.090Z,6.90
2024-03-10T15:32:45.989Z,7.38
2024-03-10T15:35:47.795Z,6.40
2024-03-10T15:38:50.967Z,6.78
2024-03-10T15:41:53.280Z,6.18
2024-03-10T15:44:55.163Z,7.15
2024-03-10T15:47:57.267Z,7.40
2024-03-10T15:50:59.464Z,9.23
2024-03-10T15:54:02.616Z,9.25
2024-03-10T15:57:04.790Z,7.85
2024-03-10T16:00:07.775Z,8.77
2024-03-10T16:03:14.531Z,9.95
2024-03-10T16:06:16.347Z,8.80
2024-03-10T16:09:19.452Z,8.07
2024-03-10T16:12:21.309Z,8.90
2024-03-10T16:15:28.517Z,9.27
2024-03-10T16:18:32.624Z,10.25
2024-03-10T16:21:37.951Z,10.23
2024-03-10T16:24:41.149Z,9.93
2024-03-10T16:27:43.058Z,11.73
2024-03-10T16:30:45.033Z,11.23
2024-03-10T16:33:46.886Z,10.85
2024-03-10T16:36:48.685Z,9.65
2024-03-10T16:39:51.781Z,10.02
2024-03-10T16:42:53.524Z,9.70
2024-03-10T16:45:55.458Z,9.77
2024-03-10T16:48:57.328Z,11.23
2024-03-10T16:51:59.128Z,14.13
2024-03-10T16:55:02.294Z,14.30
2024-03-10T16:58:04.359Z,12.98
2024-03-10T17:01:06.123Z,11.48
2024-03-10T17:04:07.898Z,10.13
2024-03-10T17:07:09.655Z,8.35
2024-03-10T17:10:13.030Z,9.30
2024-03-10T17:16:16.522Z,7.97
2024-03-10T17:19:18.270Z,9.65
2024-03-10T17:22:20.020Z,9.07
2024-03-10T17:25:23.177Z,9.52
2024-03-10T17:28:24.938Z,13.95
2024-03-10T17:31:26.728Z,10.20
2024-03-10T17:34:28.486Z,11.05
2024-03-10T17:37:30.276Z,11.15
2024-03-10T17:40:33.406Z,10.95
2024-03-10T17:43:35.196Z,11.52
2024-03-10T17:46:37.265Z,10.50
2024-03-10T17:49:41.226Z,9.95
2024-03-10T17:52:44.699Z,10.50
2024-03-10T17:55:47.826Z,10.02
2024-03-10T17:58:49.575Z,10.05
2024-03-10T18:01:51.339Z,9.38
2024-03-10T18:04:53.079Z,9.52
2024-03-10T18:07:54.873Z,10.20
2024-03-10T18:10:58.008Z,10.05
2024-03-10T18:13:59.772Z,10.60
2024-03-10T18:17:01.655Z,11.30
2024-03-10T18:20:03.913Z,11.55
2024-03-10T18:23:05.789Z,11.07
2024-03-10T18:26:09.013Z,11.50
2024-03-10T18:29:12.351Z,10.55
2024-03-10T18:32:15.502Z,12.18
2024-03-10T18:35:17.492Z,10.55
2024-03-10T18:38:19.458Z,12.82
2024-03-10T18:41:22.869Z,12.00
2024-03-10T18:44:24.908Z,11.30
2024-03-10T18:47:27.020Z,12.30
2024-03-10T18:50:28.868Z,12.20
2024-03-10T18:53:30.881Z,10.70
2024-03-10T18:56:34.160Z,11.95
2024-03-10T18:59:36.093Z,10.10
2024-03-10T19:02:38.012Z,10.05
2024-03-10T19:05:40.242Z,11.57
2024-03-10T19:08:42.135Z,10.70
2024-03-10T19:11:45.567Z,11.10
2024-03-10T19:14:47.469Z,10.88
2024-03-10T19:17:49.292Z,10.60
2024-03-10T19:20:51.160Z,9.38
2024-03-10T19:23:53.132Z,10.18
2024-03-10T19:26:56.438Z,10.48
2024-03-10T19:29:58.475Z,10.68
2024-03-10T19:33:00.473Z,9.88
2024-03-10T19:36:02.426Z,10.38
2024-03-10T19:39:04.335Z,10.43
2024-03-10T19:42:07.785Z,10.32
2024-03-10T19:45:10.360Z,10.10
2024-03-10T19:48:12.247Z,9.18
2024-03-10T19:51:14.228Z,9.25
2024-03-10T19:54:16.102Z,10.40
2024-03-10T19:57:19.943Z,9.75
2024-03-10T20:00:21.916Z,9.93
2024-03-10T20:03:23.672Z,9.32
2024-03-10T20:06:25.632Z,9.43
2024-03-10T20:09:27.500Z,8.88
2024-03-10T20:12:30.621Z,9.10
2024-03-10T20:15:32.486Z,8.73
2024-03-10T20:18:34.266Z,8.85
2024-03-10T20:21:36.174Z,8.73
2024-03-10T20:24:37.909Z,9.10
2024-03-10T20:27:41.778Z,9.10
2024-03-10T20:30:43.581Z,7.95
2024-03-10T20:33:45.351Z,8.25
2024-03-10T20:36:47.101Z,9.38
2024-03-10T20:39:48.829Z,9.20
2024-03-10T20:42:51.926Z,10.18
2024-03-10T20:45:59.527Z,9.60
2024-03-10T20:49:02.077Z,8.60
2024-03-10T20:52:04.111Z,9.38
2024-03-10T20:55:06.549Z,9.77
2024-03-10T20:58:09.668Z,8.82
2024-03-10T21:01:11.679Z,8.68
2024-03-10T21:04:13.996Z,8.45
2024-03-10T21:07:16.001Z,9.23
2024-03-10T21:10:17.908Z,9.27
2024-03-10T21:13:21.034Z,9.27
2024-03-10T21:16:22.869Z,9.10
2024-03-10T21:19:24.760Z,8.88
2024-03-10T21:22:26.509Z,9.38
2024-03-10T21:25:28.443Z,8.50
2024-03-10T21:28:31.761Z,8.40
2024-03-10T21:31:33.519Z,9.55
2024-03-10T21:34:36.528Z,8.43
2024-03-10T21:37:38.553Z,8.73
2024-03-10T21:40:40.327Z,9.25
2024-03-10T21:43:43.467Z,10.00
2024-03-10T21:46:45.382Z,8.15
2024-03-10T21:49:47.183Z,9.40
2024-03-10T21:52:49.135Z,9.05
2024-03-10T21:55:50.873Z,9.82
2024-03-10T21:58:53.986Z,9.35
2024-03-10T22:01:55.764Z,8.95
2024-03-10T22:04:57.525Z,9.30
2024-03-10T22:07:59.399Z,9.25
2024-03-10T22:11:01.262Z,10.00
2024-03-10T22:14:04.654Z,8.65
2024-03-10T22:17:06.459Z,8.63
2024-03-10T22:20:09.071Z,8.45
2024-03-10T22:23:10.898Z,8.60
2024-03-10T22:26:12.722Z,9.48
2024-03-10T22:29:15.972Z,8.63
2024-03-10T22:32:17.818Z,8.65
2024-03-10T22:35:19.736Z,9.45
2024-03-10T22:38:21.720Z,8.77
2024-03-10T22:41:23.574Z,9.27
2024-03-10T22:44:26.756Z,9.45
2024-03-10T22:47:28.552Z,9.65
2024-03-10T22:50:30.653Z,8.70
2024-03-10T22:53:32.672Z,9.20
2024-03-10T22:56:34.531Z,8.60
2024-03-10T22:59:37.741Z,9.07
2024-03-10T23:02:39.553Z,10.10
2024-03-10T23:05:42.074Z,8.30
2024-03-10T23:08:43.859Z,9.13
2024-03-10T23:11:45.747Z,9.15
2024-03-10T23:14:48.978Z,9.95
2024-03-10T23:17:50.814Z,9.98
2024-03-10T23:20:53.268Z,8.10
2024-03-10T23:23:55.055Z,10.40
2024-03-10T23:26:58.307Z,9.38
2024-03-10T23:30:03.143Z,8.70
2024-03-10T23:33:05.515Z,9.20
2024-03-10T23:36:07.844Z,9.05
2024-03-10T23:39:09.602Z,9.13
2024-03-10T23:42:11.478Z,9.02
2024-03-10T23:45:14.633Z,9.55
2024-03-10T23:48:16.508Z,9.13
2024-03-10T23:51:18.277Z,9.75
2024-03-10T23:54:20.014Z,9.70
2024-03-10T23:57:21.801Z,9.20
